Aeroporto :
LOGIN :

Iscrizione | Disclaimer

   EN    FR    IT 

 










Sommario :    VFR   VFR Marginale   IFR   IFR Intensivo   IFR Molto Intensivo
Visibilità : 
Base nubi : 
>= 8 km
>= 3000ft
5 / 8 km
1000 / 3000 ft
1500m / 5 km
500 / 1000 ft
800 / 1500m
200 / 500 ft
< 800m
< 200 ft
Simboli :   Temporali  Nebbia  Neve Forte  Precipitazioni Forti  Vento > 20 kt
SIGMETs :   Varie  Temporali  Ghiacco  Turbolenza  Onda orograficha  Ceneri Vulcaniche






- Altitudine del aeroporto : 10 ft
- Codice IATA : AAL


EKYT - Aalborg

ULTIMO METAR :
  • 112020Z AUTO 14014KT 9999 SCT029/// BKN033/// 05/03 Q1001

METARs OBSOLETI :
  • 111950Z AUTO 14015KT 9999 FEW029/// SCT037/// BKN200/// 05/03 Q1001
  • 111920Z AUTO 13015KT 9999 SCT027/// BKN031/// 05/03 Q1001
  • 111850Z AUTO 14012KT 9999 FEW027/// BKN190/// 05/04 Q1002
  • 111820Z AUTO 14011KT 9999 BKN200/// 05/03 Q1002
  • 111750Z AUTO 15012KT 9999 BKN190/// 05/03 Q1002

TAF TAF EKYT
Valido dal 11 a 21 ore il 12 a 21 ore UTC


112009Z 1121/1221 14015KT 9999 SCT012 BKN030
TEMPO 1123/1206 7000 -RA BKN012
TEMPO 1206/1216 17015G25KT 4000 RA BKN008 SCT030TCU
BECMG 1216/1219 17012KT



MetMap, La meteo Aeronautica in un colpo d'occhio ! - Copyright ORBIFLY Dicembre 2007 - Disclaimer

ORBIFLY MET'MAP TEAM :

Programmazione e sviluppo : Alexandra Zaïnal
Concezione e sviluppo : Baudouin d'Aumeries
Co-Programmazione e sviluppo : Marc-Olivier Méhu
Supporto tecnico e logistico : Manuel Goepfert
Aiuto per la traduzione : Arnaldo La Scala

Contatto : metmap@orbifly.com




FONTI E CREDITI :

   NOAA